Time;durP1;ratioP1;P1;durP2;ratioP2;P2;SDS_P1;SDS_P2;PMS_P1;PMS_P2;Temp;Humidity;BMP_temperature;BMP_pressure;BME280_temperature;BME280_humidity;BME280_pressure;Samples;Min_cycle;Max_cycle;Signal;HPM_P1;HPM_P2
2023/09/11 00:01:02;;;;;;;0.10;0.10;;;;;;;;;;5023274;28;20041;-90
2023/09/11 00:03:28;;;;;;;0.10;0.10;;;;;;;;;;5022678;28;20038;-89
2023/09/11 00:06:03;;;;;;;0.20;0.20;;;;;;;;;;5022699;28;20041;-90
2023/09/11 00:08:29;;;;;;;0.00;0.00;;;;;;;;;;5022986;28;20057;-90
2023/09/11 00:10:55;;;;;;;0.03;0.03;;;;;;;;;;5024276;28;20037;-90
2023/09/11 00:13:22;;;;;;;0.10;0.10;;;;;;;;;;5023641;28;20859;-90
2023/09/11 00:15:48;;;;;;;0.10;0.10;;;;;;;;;;5024685;28;20045;-90
2023/09/11 00:18:14;;;;;;;0.05;0.05;;;;;;;;;;5024019;28;20041;-90
2023/09/11 00:20:40;;;;;;;0.10;0.10;;;;;;;;;;5039716;28;20034;-90
2023/09/11 00:23:08;;;;;;;0.30;0.30;;;;;;;;;;5023643;28;20072;-90
2023/09/11 00:25:34;;;;;;;0.10;0.10;;;;;;;;;;5024346;28;20091;-89
2023/09/11 00:28:00;;;;;;;0.10;0.10;;;;;;;;;;5023720;28;20027;-89
2023/09/11 00:30:26;;;;;;;0.10;0.10;;;;;;;;;;5024076;28;20045;-90
2023/09/11 00:32:52;;;;;;;0.20;0.20;;;;;;;;;;5025167;28;20044;-89
2023/09/11 00:35:18;;;;;;;0.10;0.10;;;;;;;;;;5024837;28;20025;-90
2023/09/11 00:37:44;;;;;;;0.20;0.20;;;;;;;;;;5025122;28;20045;-90
2023/09/11 00:40:10;;;;;;;0.15;0.15;;;;;;;;;;5024770;28;20029;-90
2023/09/11 00:42:37;;;;;;;0.10;0.10;;;;;;;;;;5023584;28;20067;-90
2023/09/11 00:45:03;;;;;;;0.03;0.03;;;;;;;;;;5023337;28;20120;-88
2023/09/11 00:47:29;;;;;;;0.17;0.17;;;;;;;;;;5023692;28;20072;-90
2023/09/11 00:49:56;;;;;;;0.00;0.00;;;;;;;;;;5024711;28;20037;-91
2023/09/11 00:52:23;;;;;;;0.00;0.00;;;;;;;;;;5024381;28;20421;-91
2023/09/11 00:54:50;;;;;;;0.00;0.00;;;;;;;;;;5025303;28;20095;-90
2023/09/11 00:57:18;;;;;;;0.10;0.10;;;;;;;;;;5024388;28;20041;-90
2023/09/11 00:59:48;;;;;;;0.10;0.10;;;;;;;;;;5025407;28;20029;-90
2023/09/11 01:02:15;;;;;;;0.17;0.17;;;;;;;;;;5024996;28;20041;-90
2023/09/11 01:04:44;;;;;;;0.00;0.00;;;;;;;;;;5025278;28;20103;-90
2023/09/11 01:07:12;;;;;;;0.20;0.20;;;;;;;;;;5024089;28;20064;-91
2023/09/11 01:09:38;;;;;;;0.10;0.10;;;;;;;;;;5023633;28;20067;-90
2023/09/11 01:12:05;;;;;;;0.15;0.15;;;;;;;;;;5025228;28;20045;-90
2023/09/11 01:14:31;;;;;;;0.10;0.10;;;;;;;;;;5024167;28;20048;-90
2023/09/11 01:17:00;;;;;;;0.20;0.20;;;;;;;;;;5025090;28;20502;-90
2023/09/11 01:19:45;;;;;;;0.10;0.10;;;;;;;;;;5023836;28;20052;-90
2023/09/11 01:22:30;;;;;;;0.05;0.05;;;;;;;;;;5024053;28;20048;-91
2023/09/11 01:24:58;;;;;;;0.10;0.10;;;;;;;;;;5040134;28;20136;-90
2023/09/11 01:27:45;;;;;;;0.00;0.00;;;;;;;;;;5024428;28;20064;-89
2023/09/11 01:30:12;;;;;;;0.00;0.00;;;;;;;;;;5023535;28;20042;-89
2023/09/11 01:32:39;;;;;;;0.17;0.17;;;;;;;;;;5024652;28;20132;-90
2023/09/11 01:35:05;;;;;;;0.03;0.03;;;;;;;;;;5023257;28;20490;-89
2023/09/11 01:37:31;;;;;;;0.10;0.10;;;;;;;;;;5022453;28;20049;-90
2023/09/11 01:39:57;;;;;;;0.00;0.00;;;;;;;;;;5023250;28;20052;-90
2023/09/11 01:42:27;;;;;;;0.00;0.00;;;;;;;;;;5038644;28;20045;-90
2023/09/11 01:44:55;;;;;;;0.00;0.00;;;;;;;;;;5021716;28;20052;-90
2023/09/11 01:47:22;;;;;;;0.10;0.10;;;;;;;;;;5021750;28;20406;-89
2023/09/11 01:49:49;;;;;;;0.10;0.10;;;;;;;;;;5039616;28;20072;-89
2023/09/11 01:52:16;;;;;;;0.10;0.10;;;;;;;;;;5022955;28;20559;-90
2023/09/11 01:54:42;;;;;;;0.00;0.00;;;;;;;;;;5023777;28;20037;-90
2023/09/11 01:57:09;;;;;;;0.13;0.13;;;;;;;;;;5023442;28;20053;-91
2023/09/11 01:59:35;;;;;;;0.10;0.10;;;;;;;;;;5024123;28;20609;-90
2023/09/11 02:02:01;;;;;;;0.00;0.00;;;;;;;;;;5024116;28;20045;-90
2023/09/11 02:04:27;;;;;;;0.20;0.20;;;;;;;;;;5040269;28;20041;-90
2023/09/11 02:06:53;;;;;;;0.10;0.10;;;;;;;;;;5022481;28;20076;-90
2023/09/11 02:09:19;;;;;;;0.10;0.10;;;;;;;;;;5022936;28;20053;-89
2023/09/11 02:11:45;;;;;;;0.10;0.10;;;;;;;;;;5023669;28;20041;-90
2023/09/11 02:14:11;;;;;;;0.10;0.10;;;;;;;;;;5022782;28;20103;-90
2023/09/11 02:16:37;;;;;;;0.10;0.10;;;;;;;;;;5023090;28;20106;-90
2023/09/11 02:19:03;;;;;;;0.03;0.03;;;;;;;;;;5022821;28;20045;-90
2023/09/11 02:21:29;;;;;;;0.00;0.00;;;;;;;;;;5023127;28;20046;-89
2023/09/11 02:23:56;;;;;;;0.10;0.10;;;;;;;;;;5021937;28;20047;-90
2023/09/11 02:26:21;;;;;;;0.08;0.08;;;;;;;;;;5023630;28;20034;-90
2023/09/11 02:28:47;;;;;;;0.10;0.10;;;;;;;;;;5022429;28;20096;-90
2023/09/11 02:31:14;;;;;;;0.10;0.10;;;;;;;;;;5023383;28;20104;-91
2023/09/11 02:33:40;;;;;;;0.10;0.10;;;;;;;;;;5023110;28;20233;-91
2023/09/11 02:36:18;;;;;;;0.00;0.00;;;;;;;;;;5029669;28;20045;-91
2023/09/11 02:38:44;;;;;;;0.20;0.20;;;;;;;;;;5023110;28;20046;-90
2023/09/11 02:41:10;;;;;;;0.10;0.10;;;;;;;;;;5023119;28;20105;-91
2023/09/11 02:43:36;;;;;;;0.10;0.10;;;;;;;;;;5022201;28;20044;-90
2023/09/11 02:46:02;;;;;;;0.10;0.10;;;;;;;;;;5022115;28;20077;-89
2023/09/11 02:48:28;;;;;;;0.10;0.10;;;;;;;;;;5022070;28;20398;-89
2023/09/11 02:50:53;;;;;;;0.00;0.00;;;;;;;;;;5022952;28;20077;-89
2023/09/11 02:53:20;;;;;;;0.13;0.13;;;;;;;;;;5022357;28;20052;-89
2023/09/11 02:55:46;;;;;;;0.08;0.08;;;;;;;;;;5022671;28;20046;-89
2023/09/11 02:58:12;;;;;;;0.10;0.10;;;;;;;;;;5021989;28;20092;-89
2023/09/11 03:00:38;;;;;;;0.10;0.10;;;;;;;;;;5025191;28;20045;-91
2023/09/11 03:03:05;;;;;;;0.08;0.08;;;;;;;;;;5025683;28;20081;-91
2023/09/11 03:05:32;;;;;;;0.10;0.10;;;;;;;;;;5025739;28;20061;-91
2023/09/11 03:08:02;;;;;;;0.10;0.10;;;;;;;;;;5024723;28;20156;-90
2023/09/11 03:10:28;;;;;;;0.17;0.17;;;;;;;;;;5024674;28;20041;-90
2023/09/11 03:12:55;;;;;;;0.10;0.10;;;;;;;;;;5024739;28;20132;-90
2023/09/11 03:15:27;;;;;;;0.17;0.17;;;;;;;;;;5041447;28;20045;-90
2023/09/11 03:17:54;;;;;;;0.10;0.10;;;;;;;;;;5025213;28;20037;-91
2023/09/11 03:20:20;;;;;;;0.00;0.00;;;;;;;;;;5042532;28;20045;-90
2023/09/11 03:22:46;;;;;;;0.13;0.13;;;;;;;;;;5026160;28;20021;-90
2023/09/11 03:25:12;;;;;;;0.10;0.10;;;;;;;;;;5026347;28;20128;-89
2023/09/11 03:27:38;;;;;;;0.03;0.03;;;;;;;;;;5025227;28;20049;-90
2023/09/11 03:30:04;;;;;;;0.00;0.00;;;;;;;;;;5025675;28;20052;-91
2023/09/11 03:32:30;;;;;;;0.00;0.00;;;;;;;;;;5026025;28;20124;-90
2023/09/11 03:34:56;;;;;;;0.20;0.20;;;;;;;;;;5042995;28;20065;-90
2023/09/11 03:37:23;;;;;;;0.20;0.20;;;;;;;;;;5025318;28;20128;-89
2023/09/11 03:39:49;;;;;;;0.10;0.10;;;;;;;;;;5025992;28;20099;-89
2023/09/11 03:42:15;;;;;;;0.10;0.10;;;;;;;;;;5025565;28;20041;-89
2023/09/11 03:44:41;;;;;;;0.10;0.10;;;;;;;;;;5025064;28;20032;-90
2023/09/11 03:47:07;;;;;;;0.10;0.10;;;;;;;;;;5025104;28;20045;-89
2023/09/11 03:49:33;;;;;;;0.00;0.00;;;;;;;;;;5025079;28;20033;-89
2023/09/11 03:51:59;;;;;;;0.13;0.13;;;;;;;;;;5039661;28;20128;-89
2023/09/11 03:54:25;;;;;;;0.10;0.10;;;;;;;;;;5025314;28;20064;-91
2023/09/11 03:56:51;;;;;;;0.08;0.08;;;;;;;;;;5025701;28;20045;-90
2023/09/11 03:59:18;;;;;;;0.10;0.10;;;;;;;;;;5033577;28;20041;-89
2023/09/11 04:01:44;;;;;;;0.15;0.15;;;;;;;;;;5033476;28;20038;-91
2023/09/11 04:04:10;;;;;;;0.00;0.00;;;;;;;;;;5022251;28;20056;-91
2023/09/11 04:06:36;;;;;;;0.10;0.10;;;;;;;;;;5014293;28;20046;-88
2023/09/11 04:09:03;;;;;;;0.00;0.00;;;;;;;;;;5010449;28;20044;-87
2023/09/11 04:11:29;;;;;;;0.10;0.10;;;;;;;;;;5016744;28;20044;-88
2023/09/11 04:13:55;;;;;;;0.00;0.00;;;;;;;;;;5037965;28;20044;-88
2023/09/11 04:16:29;;;;;;;0.03;0.03;;;;;;;;;;5039134;28;20042;-87
2023/09/11 04:18:55;;;;;;;0.20;0.20;;;;;;;;;;5019909;28;20049;-87
2023/09/11 04:21:21;;;;;;;0.10;0.10;;;;;;;;;;5023054;28;20045;-87
2023/09/11 04:23:47;;;;;;;0.03;0.03;;;;;;;;;;5039659;28;20498;-87
2023/09/11 04:26:13;;;;;;;0.10;0.10;;;;;;;;;;5039052;28;20056;-87
2023/09/11 04:28:39;;;;;;;0.20;0.20;;;;;;;;;;5038893;28;20049;-86
2023/09/11 04:31:05;;;;;;;0.10;0.10;;;;;;;;;;5022482;28;20041;-88
2023/09/11 04:33:31;;;;;;;0.10;0.10;;;;;;;;;;5035538;28;20063;-87
2023/09/11 04:35:57;;;;;;;0.10;0.10;;;;;;;;;;5023048;28;20064;-86
2023/09/11 04:38:24;;;;;;;0.00;0.00;;;;;;;;;;5022719;28;20045;-87
2023/09/11 04:41:15;;;;;;;0.20;0.20;;;;;;;;;;5039266;28;20042;-86
2023/09/11 04:43:41;;;;;;;0.08;0.08;;;;;;;;;;5022694;28;20042;-87
2023/09/11 04:46:07;;;;;;;0.10;0.10;;;;;;;;;;5022722;28;20043;-86
2023/09/11 04:48:33;;;;;;;0.00;0.00;;;;;;;;;;5022396;28;20042;-86
2023/09/11 04:51:00;;;;;;;0.28;0.28;;;;;;;;;;5010542;28;20102;-87
2023/09/11 04:53:26;;;;;;;0.10;0.10;;;;;;;;;;5021096;28;20041;-86
2023/09/11 04:55:52;;;;;;;0.10;0.10;;;;;;;;;;5038331;28;20528;-86
2023/09/11 04:58:19;;;;;;;0.10;0.10;;;;;;;;;;5037490;28;20041;-86
2023/09/11 05:00:45;;;;;;;0.00;0.00;;;;;;;;;;5038145;28;20038;-86
2023/09/11 05:03:11;;;;;;;0.20;0.20;;;;;;;;;;5019004;28;20037;-85
2023/09/11 05:05:40;;;;;;;0.10;0.10;;;;;;;;;;5031397;28;20072;-86
2023/09/11 05:08:07;;;;;;;0.20;0.20;;;;;;;;;;5036360;28;20104;-86
2023/09/11 05:10:33;;;;;;;0.10;0.10;;;;;;;;;;5036381;28;20504;-88
2023/09/11 05:13:00;;;;;;;0.10;0.10;;;;;;;;;;5020798;28;20045;-86
2023/09/11 05:15:26;;;;;;;0.20;0.20;;;;;;;;;;5037161;28;20041;-85
2023/09/11 05:17:52;;;;;;;0.10;0.10;;;;;;;;;;5037436;28;20520;-86
2023/09/11 05:20:19;;;;;;;0.10;0.10;;;;;;;;;;5037319;28;20084;-86
2023/09/11 05:22:45;;;;;;;0.10;0.10;;;;;;;;;;5036313;28;20033;-86
2023/09/11 05:25:11;;;;;;;0.10;0.10;;;;;;;;;;5037590;28;20132;-86
2023/09/11 05:27:37;;;;;;;0.10;0.10;;;;;;;;;;5038250;28;20152;-86
2023/09/11 05:30:03;;;;;;;0.10;0.10;;;;;;;;;;5038229;28;20545;-86
2023/09/11 05:32:32;;;;;;;0.20;0.20;;;;;;;;;;5038108;28;20103;-86
2023/09/11 05:34:58;;;;;;;0.03;0.03;;;;;;;;;;5037726;28;20045;-85
2023/09/11 05:37:24;;;;;;;0.08;0.08;;;;;;;;;;5038211;28;20048;-86
2023/09/11 05:39:50;;;;;;;0.10;0.10;;;;;;;;;;5031464;28;20038;-86
2023/09/11 05:42:16;;;;;;;0.08;0.08;;;;;;;;;;5021334;28;20033;-86
2023/09/11 05:44:43;;;;;;;0.20;0.20;;;;;;;;;;5021632;28;20046;-87
2023/09/11 05:47:09;;;;;;;0.17;0.17;;;;;;;;;;5021536;28;20021;-87
2023/09/11 05:49:35;;;;;;;0.15;0.15;;;;;;;;;;5021252;28;20056;-86
2023/09/11 05:52:01;;;;;;;0.13;0.13;;;;;;;;;;5021095;28;20029;-87
2023/09/11 05:54:29;;;;;;;0.00;0.00;;;;;;;;;;5019838;28;20117;-86
2023/09/11 05:56:55;;;;;;;0.25;0.25;;;;;;;;;;5037710;28;20121;-86
2023/09/11 05:59:21;;;;;;;0.13;0.13;;;;;;;;;;5021093;28;20103;-86
2023/09/11 06:01:47;;;;;;;0.00;0.00;;;;;;;;;;5037970;28;20044;-86
2023/09/11 06:04:13;;;;;;;0.20;0.20;;;;;;;;;;5039623;28;20037;-87
2023/09/11 06:06:56;;;;;;;0.20;0.20;;;;;;;;;;5040627;28;20037;-86
2023/09/11 06:09:22;;;;;;;0.10;0.10;;;;;;;;;;5023813;28;20551;-87
2023/09/11 06:11:49;;;;;;;0.15;0.15;;;;;;;;;;5024756;28;20037;-86
2023/09/11 06:14:15;;;;;;;0.00;0.00;;;;;;;;;;5023440;28;20051;-87
2023/09/11 06:16:41;;;;;;;0.13;0.13;;;;;;;;;;5023799;28;20073;-86
2023/09/11 06:19:07;;;;;;;0.10;0.10;;;;;;;;;;5023481;28;20479;-86
2023/09/11 06:21:33;;;;;;;0.20;0.20;;;;;;;;;;5024707;28;20052;-86
2023/09/11 06:23:59;;;;;;;0.08;0.08;;;;;;;;;;5024348;28;20038;-86
2023/09/11 06:26:25;;;;;;;0.10;0.10;;;;;;;;;;5040500;28;20044;-86
2023/09/11 06:28:51;;;;;;;0.03;0.03;;;;;;;;;;5040319;28;20091;-86
2023/09/11 06:31:18;;;;;;;0.00;0.00;;;;;;;;;;5023489;28;20577;-87
2023/09/11 06:33:45;;;;;;;0.10;0.10;;;;;;;;;;5023979;28;20048;-87
2023/09/11 06:36:12;;;;;;;0.20;0.20;;;;;;;;;;5023610;28;20038;-87
2023/09/11 06:38:39;;;;;;;0.10;0.10;;;;;;;;;;5023864;28;20076;-86
2023/09/11 06:41:05;;;;;;;0.10;0.10;;;;;;;;;;5024248;28;20041;-87
2023/09/11 06:43:31;;;;;;;0.10;0.10;;;;;;;;;;5024161;28;20033;-86
2023/09/11 06:45:57;;;;;;;0.08;0.08;;;;;;;;;;5024342;28;20045;-87
2023/09/11 06:48:23;;;;;;;0.10;0.10;;;;;;;;;;5023832;28;20124;-86
2023/09/11 06:50:53;;;;;;;0.10;0.10;;;;;;;;;;5042148;28;20045;-86
2023/09/11 06:53:19;;;;;;;0.00;0.00;;;;;;;;;;5024385;28;20049;-88
2023/09/11 06:55:45;;;;;;;0.00;0.00;;;;;;;;;;5040473;28;20439;-86
2023/09/11 06:58:12;;;;;;;0.10;0.10;;;;;;;;;;5006946;28;20546;-87
2023/09/11 07:00:38;;;;;;;0.08;0.08;;;;;;;;;;5023850;28;20064;-87
2023/09/11 07:03:04;;;;;;;0.00;0.00;;;;;;;;;;5021312;28;20037;-86
2023/09/11 07:05:30;;;;;;;0.10;0.10;;;;;;;;;;5020728;28;20046;-87
2023/09/11 07:07:56;;;;;;;0.20;0.20;;;;;;;;;;5004345;28;20050;-86
2023/09/11 07:10:22;;;;;;;0.00;0.00;;;;;;;;;;5020064;28;20037;-87
2023/09/11 07:12:49;;;;;;;0.10;0.10;;;;;;;;;;5003259;28;20045;-87
2023/09/11 07:15:15;;;;;;;0.10;0.10;;;;;;;;;;5004260;28;20038;-87
2023/09/11 07:17:41;;;;;;;0.10;0.10;;;;;;;;;;5003806;28;20038;-86
2023/09/11 07:20:09;;;;;;;0.15;0.15;;;;;;;;;;5019834;28;20056;-86
2023/09/11 07:22:35;;;;;;;0.00;0.00;;;;;;;;;;5003685;28;20060;-87
2023/09/11 07:25:03;;;;;;;0.00;0.00;;;;;;;;;;5004008;28;20087;-86
2023/09/11 07:27:35;;;;;;;0.30;0.30;;;;;;;;;;5004411;28;20042;-87
2023/09/11 07:30:03;;;;;;;0.00;0.00;;;;;;;;;;5003234;28;20107;-87
2023/09/11 07:32:30;;;;;;;0.00;0.00;;;;;;;;;;5003242;28;20033;-87
2023/09/11 07:34:56;;;;;;;0.08;0.08;;;;;;;;;;5003875;28;20112;-87
2023/09/11 07:37:22;;;;;;;0.05;0.05;;;;;;;;;;5003943;28;20687;-86
2023/09/11 07:39:48;;;;;;;0.00;0.00;;;;;;;;;;5003415;28;20561;-85
2023/09/11 07:42:14;;;;;;;0.10;0.10;;;;;;;;;;5004598;28;20410;-86
2023/09/11 07:44:41;;;;;;;0.00;0.00;;;;;;;;;;5005322;28;20402;-86
2023/09/11 07:47:07;;;;;;;0.17;0.17;;;;;;;;;;5004139;28;20045;-86
2023/09/11 07:49:33;;;;;;;0.20;0.20;;;;;;;;;;5004343;28;20042;-87
2023/09/11 07:51:59;;;;;;;0.08;0.08;;;;;;;;;;5004104;28;20039;-86
2023/09/11 07:54:25;;;;;;;0.10;0.10;;;;;;;;;;5003708;28;20165;-85
2023/09/11 07:56:52;;;;;;;0.10;0.10;;;;;;;;;;5003704;28;20054;-86
2023/09/11 07:59:18;;;;;;;0.10;0.10;;;;;;;;;;5013698;28;20040;-86
2023/09/11 08:01:53;;;;;;;0.10;0.10;;;;;;;;;;5039785;28;20100;-85
2023/09/11 08:04:19;;;;;;;0.10;0.10;;;;;;;;;;5039433;28;20128;-85
2023/09/11 08:06:45;;;;;;;0.10;0.10;;;;;;;;;;5038807;28;20073;-86
2023/09/11 08:09:11;;;;;;;0.10;0.10;;;;;;;;;;5022329;28;20041;-85
2023/09/11 08:11:39;;;;;;;0.10;0.10;;;;;;;;;;5039816;28;20049;-87
2023/09/11 08:14:06;;;;;;;0.05;0.05;;;;;;;;;;5038220;28;20021;-87
2023/09/11 08:16:38;;;;;;;0.03;0.03;;;;;;;;;;5038889;28;20041;-88
2023/09/11 08:19:10;;;;;;;0.00;0.00;;;;;;;;;;5022266;28;20072;-88
2023/09/11 08:21:37;;;;;;;0.00;0.00;;;;;;;;;;5022949;28;20379;-87
2023/09/11 08:24:05;;;;;;;0.10;0.10;;;;;;;;;;5022434;28;20105;-87
2023/09/11 08:26:31;;;;;;;0.08;0.08;;;;;;;;;;5024618;28;20049;-87
2023/09/11 08:29:06;;;;;;;0.10;0.10;;;;;;;;;;5024407;28;20072;-87
2023/09/11 08:31:32;;;;;;;0.00;0.00;;;;;;;;;;5023582;28;20162;-88
2023/09/11 08:33:58;;;;;;;0.20;0.20;;;;;;;;;;5023804;28;20556;-87
2023/09/11 08:36:25;;;;;;;0.00;0.00;;;;;;;;;;5023981;28;20041;-88
2023/09/11 08:38:51;;;;;;;0.00;0.00;;;;;;;;;;5024158;28;20556;-87
2023/09/11 08:41:24;;;;;;;0.10;0.10;;;;;;;;;;5024129;28;20088;-87
2023/09/11 08:43:51;;;;;;;0.00;0.00;;;;;;;;;;5023378;28;20080;-87
2023/09/11 08:46:25;;;;;;;0.00;0.00;;;;;;;;;;5039893;28;20048;-88
2023/09/11 08:48:54;;;;;;;0.22;0.22;;;;;;;;;;5023323;28;20037;-88
2023/09/11 08:51:23;;;;;;;0.00;0.00;;;;;;;;;;5022619;28;20053;-87
2023/09/11 08:53:51;;;;;;;0.05;0.05;;;;;;;;;;5023583;28;20108;-87
2023/09/11 08:56:17;;;;;;;0.10;0.10;;;;;;;;;;5022448;28;20038;-86
2023/09/11 08:58:43;;;;;;;0.52;0.52;;;;;;;;;;5022012;28;20131;-86
2023/09/11 09:01:10;;;;;;;0.10;0.10;;;;;;;;;;5021839;28;20077;-88
2023/09/11 09:03:38;;;;;;;0.00;0.00;;;;;;;;;;5021172;28;20128;-86
2023/09/11 09:06:05;;;;;;;0.00;0.00;;;;;;;;;;5021117;28;20047;-88
2023/09/11 09:08:32;;;;;;;0.10;0.10;;;;;;;;;;5019941;28;20041;-88
2023/09/11 09:10:59;;;;;;;0.08;0.08;;;;;;;;;;5021927;28;20379;-87
2023/09/11 09:13:25;;;;;;;0.00;0.00;;;;;;;;;;5036743;28;20090;-88
2023/09/11 09:15:51;;;;;;;0.20;0.20;;;;;;;;;;5022042;28;20128;-85
2023/09/11 09:18:17;;;;;;;0.10;0.10;;;;;;;;;;5020674;28;20591;-87
2023/09/11 09:20:43;;;;;;;0.10;0.10;;;;;;;;;;5022360;28;20037;-91
2023/09/11 09:23:10;;;;;;;0.10;0.10;;;;;;;;;;5025180;28;20496;-89
2023/09/11 09:25:37;;;;;;;0.00;0.00;;;;;;;;;;5023183;28;20045;-88
2023/09/11 09:28:03;;;;;;;0.00;0.00;;;;;;;;;;5021047;28;20401;-87
2023/09/11 09:30:31;;;;;;;0.10;0.10;;;;;;;;;;5021102;28;20041;-87
2023/09/11 09:32:58;;;;;;;0.10;0.10;;;;;;;;;;5020966;28;20101;-87
2023/09/11 09:35:30;;;;;;;0.00;0.00;;;;;;;;;;5020383;28;20045;-86
2023/09/11 09:37:57;;;;;;;0.00;0.00;;;;;;;;;;5020801;28;20041;-86
2023/09/11 09:40:39;;;;;;;0.10;0.10;;;;;;;;;;5022034;28;20051;-88
2023/09/11 09:43:15;;;;;;;0.10;0.10;;;;;;;;;;5021864;28;20091;-87
2023/09/11 09:45:44;;;;;;;0.00;0.00;;;;;;;;;;5021315;28;20071;-88
2023/09/11 09:48:11;;;;;;;0.00;0.00;;;;;;;;;;5021697;28;20243;-88
2023/09/11 09:50:47;;;;;;;0.10;0.10;;;;;;;;;;5021877;28;20037;-88
2023/09/11 09:53:21;;;;;;;0.10;0.10;;;;;;;;;;5022347;28;20402;-89
2023/09/11 09:55:47;;;;;;;0.00;0.00;;;;;;;;;;5022887;28;20128;-88
2023/09/11 09:58:13;;;;;;;0.03;0.03;;;;;;;;;;5020901;28;20040;-88
2023/09/11 10:00:39;;;;;;;0.00;0.00;;;;;;;;;;5020851;28;20045;-87
2023/09/11 10:03:05;;;;;;;0.08;0.08;;;;;;;;;;5020642;28;20045;-88
2023/09/11 10:05:31;;;;;;;0.30;0.30;;;;;;;;;;5020374;28;20491;-88
2023/09/11 10:08:00;;;;;;;0.10;0.10;;;;;;;;;;5021570;28;20536;-88
2023/09/11 10:10:30;;;;;;;0.10;0.10;;;;;;;;;;5038493;28;20132;-87
2023/09/11 10:13:07;;;;;;;0.10;0.10;;;;;;;;;;5038998;28;20041;-87
2023/09/11 10:15:34;;;;;;;0.22;0.22;;;;;;;;;;5024987;28;20037;-87
2023/09/11 10:18:00;;;;;;;0.00;0.00;;;;;;;;;;5017365;28;20128;-87
2023/09/11 10:20:27;;;;;;;0.10;0.10;;;;;;;;;;5000768;28;20044;-86
2023/09/11 10:22:54;;;;;;;0.00;0.00;;;;;;;;;;5000897;28;20449;-87
2023/09/11 10:25:42;;;;;;;0.10;0.10;;;;;;;;;;5000161;28;20050;-88
2023/09/11 10:28:09;;;;;;;0.00;0.00;;;;;;;;;;5001205;28;20495;-89
2023/09/11 10:30:40;;;;;;;0.20;0.20;;;;;;;;;;5000754;28;20026;-89
2023/09/11 10:33:09;;;;;;;0.00;0.00;;;;;;;;;;5000573;28;20045;-89
2023/09/11 10:35:38;;;;;;;0.00;0.00;;;;;;;;;;5000030;28;20053;-89
2023/09/11 10:38:05;;;;;;;0.00;0.00;;;;;;;;;;5000504;28;20045;-88
2023/09/11 10:40:32;;;;;;;0.00;0.00;;;;;;;;;;5016235;28;20383;-89
2023/09/11 10:42:59;;;;;;;0.00;0.00;;;;;;;;;;5000887;28;20507;-87
2023/09/11 10:45:29;;;;;;;0.00;0.00;;;;;;;;;;5000326;28;20042;-89
2023/09/11 10:47:55;;;;;;;0.00;0.00;;;;;;;;;;5003840;28;20034;-89
2023/09/11 10:50:50;;;;;;;0.10;0.10;;;;;;;;;;5004778;28;20041;-89
2023/09/11 10:53:16;;;;;;;0.00;0.00;;;;;;;;;;5004130;28;20072;-89
2023/09/11 10:55:43;;;;;;;0.10;0.10;;;;;;;;;;5005247;28;20091;-89
2023/09/11 10:58:09;;;;;;;0.30;0.30;;;;;;;;;;5004549;28;20049;-89
2023/09/11 11:00:38;;;;;;;0.10;0.10;;;;;;;;;;5003533;28;20049;-89
2023/09/11 11:03:05;;;;;;;0.05;0.05;;;;;;;;;;5003062;28;20029;-89
2023/09/11 11:05:32;;;;;;;0.00;0.00;;;;;;;;;;5020408;28;20141;-89
2023/09/11 11:07:58;;;;;;;0.00;0.00;;;;;;;;;;5019526;28;20053;-89
2023/09/11 11:10:26;;;;;;;0.10;0.10;;;;;;;;;;5019509;28;20112;-89
2023/09/11 11:13:08;;;;;;;0.08;0.08;;;;;;;;;;5003435;28;20046;-89
2023/09/11 11:15:35;;;;;;;0.10;0.10;;;;;;;;;;5003714;28;20077;-89
2023/09/11 11:18:08;;;;;;;0.10;0.10;;;;;;;;;;5004161;28;20559;-87
2023/09/11 11:20:35;;;;;;;0.00;0.00;;;;;;;;;;5037316;28;20041;-88
2023/09/11 11:23:08;;;;;;;0.10;0.10;;;;;;;;;;5004052;28;20172;-88
2023/09/11 11:25:34;;;;;;;0.00;0.00;;;;;;;;;;5003749;28;20038;-90
2023/09/11 11:28:07;;;;;;;0.10;0.10;;;;;;;;;;5020523;28;20089;-89
2023/09/11 11:30:35;;;;;;;0.00;0.00;;;;;;;;;;5020331;28;20420;-88
2023/09/11 11:33:04;;;;;;;0.10;0.10;;;;;;;;;;5003478;28;20041;-88
2023/09/11 11:35:31;;;;;;;0.00;0.00;;;;;;;;;;5002823;28;20132;-88
2023/09/11 11:37:57;;;;;;;0.00;0.00;;;;;;;;;;5003316;28;20096;-88
2023/09/11 11:40:23;;;;;;;0.10;0.10;;;;;;;;;;5002666;28;20074;-88
2023/09/11 11:42:50;;;;;;;0.00;0.00;;;;;;;;;;5003214;28;20037;-87
2023/09/11 11:45:16;;;;;;;0.10;0.10;;;;;;;;;;5002467;28;20038;-88
2023/09/11 11:47:42;;;;;;;0.10;0.10;;;;;;;;;;5002913;28;20048;-88
2023/09/11 11:50:12;;;;;;;0.00;0.00;;;;;;;;;;5003139;28;20045;-88
2023/09/11 11:52:38;;;;;;;0.10;0.10;;;;;;;;;;5003769;28;20092;-89
2023/09/11 11:55:18;;;;;;;0.10;0.10;;;;;;;;;;5003113;28;20041;-88
2023/09/11 11:57:44;;;;;;;0.05;0.05;;;;;;;;;;5003385;28;20077;-89
2023/09/11 12:00:11;;;;;;;0.08;0.08;;;;;;;;;;5000911;28;20085;-89
2023/09/11 12:02:37;;;;;;;0.00;0.00;;;;;;;;;;5002147;28;20037;-88
2023/09/11 12:05:11;;;;;;;0.00;0.00;;;;;;;;;;5001430;28;20571;-87
2023/09/11 12:07:37;;;;;;;0.10;0.10;;;;;;;;;;5001631;28;20049;-87
2023/09/11 12:10:03;;;;;;;0.10;0.10;;;;;;;;;;5001938;28;20037;-89
2023/09/11 12:12:29;;;;;;;0.20;0.20;;;;;;;;;;5002253;28;20045;-89
2023/09/11 12:14:56;;;;;;;0.10;0.10;;;;;;;;;;5002095;28;20379;-90
2023/09/11 12:17:22;;;;;;;0.30;0.30;;;;;;;;;;5002424;28;20490;-87
2023/09/11 12:19:48;;;;;;;0.10;0.10;;;;;;;;;;5002410;28;20060;-87
2023/09/11 12:22:14;;;;;;;0.10;0.10;;;;;;;;;;5018461;28;20042;-88
2023/09/11 12:24:40;;;;;;;0.10;0.10;;;;;;;;;;5002200;28;20053;-88
2023/09/11 12:27:07;;;;;;;0.10;0.10;;;;;;;;;;5003113;28;20042;-89
2023/09/11 12:29:33;;;;;;;0.00;0.00;;;;;;;;;;5035105;28;20042;-88
2023/09/11 12:31:59;;;;;;;0.00;0.00;;;;;;;;;;5001807;28;20045;-88
2023/09/11 12:34:27;;;;;;;0.10;0.10;;;;;;;;;;5001953;28;20497;-88
2023/09/11 12:36:53;;;;;;;0.10;0.10;;;;;;;;;;5038610;28;20049;-88
2023/09/11 12:39:19;;;;;;;0.10;0.10;;;;;;;;;;5022520;28;20052;-88
2023/09/11 12:41:46;;;;;;;0.00;0.00;;;;;;;;;;5023340;28;20043;-88
2023/09/11 12:44:12;;;;;;;0.00;0.00;;;;;;;;;;5038194;28;20061;-87
2023/09/11 12:46:38;;;;;;;0.10;0.10;;;;;;;;;;5021589;28;20046;-87
2023/09/11 12:49:05;;;;;;;0.20;0.20;;;;;;;;;;5021461;28;20057;-89
2023/09/11 12:51:33;;;;;;;0.00;0.00;;;;;;;;;;5021905;28;20045;-88
2023/09/11 12:53:59;;;;;;;0.15;0.15;;;;;;;;;;5023117;28;20962;-88
2023/09/11 12:56:27;;;;;;;0.10;0.10;;;;;;;;;;5039305;28;20037;-88
2023/09/11 12:58:56;;;;;;;0.00;0.00;;;;;;;;;;5022885;28;20041;-88
2023/09/11 13:01:22;;;;;;;0.00;0.00;;;;;;;;;;5038674;28;20042;-87
2023/09/11 13:03:48;;;;;;;0.00;0.00;;;;;;;;;;5021444;28;20060;-87
2023/09/11 13:06:14;;;;;;;0.00;0.00;;;;;;;;;;5021234;28;20457;-88
2023/09/11 13:08:41;;;;;;;0.00;0.00;;;;;;;;;;5021484;28;20050;-87
2023/09/11 13:11:07;;;;;;;0.10;0.10;;;;;;;;;;5036813;28;20041;-86
2023/09/11 13:13:33;;;;;;;0.03;0.03;;;;;;;;;;5021209;28;20405;-88
2023/09/11 13:15:59;;;;;;;0.00;0.00;;;;;;;;;;5022182;28;20049;-88
2023/09/11 13:18:25;;;;;;;0.10;0.10;;;;;;;;;;5038107;28;20045;-88
2023/09/11 13:20:51;;;;;;;0.10;0.10;;;;;;;;;;5021470;28;20137;-88
2023/09/11 13:23:17;;;;;;;0.10;0.10;;;;;;;;;;5021215;28;20037;-88
2023/09/11 13:25:44;;;;;;;0.10;0.10;;;;;;;;;;5021353;28;20041;-88
2023/09/11 13:28:10;;;;;;;0.10;0.10;;;;;;;;;;5021524;28;20041;-88
2023/09/11 13:30:36;;;;;;;0.00;0.00;;;;;;;;;;5021690;28;20497;-88
2023/09/11 13:33:02;;;;;;;0.00;0.00;;;;;;;;;;5021831;28;20041;-88
2023/09/11 13:35:28;;;;;;;0.10;0.10;;;;;;;;;;5038536;28;20041;-88
2023/09/11 13:37:55;;;;;;;0.00;0.00;;;;;;;;;;5022002;28;20041;-88
2023/09/11 13:40:21;;;;;;;0.13;0.13;;;;;;;;;;5021748;28;20053;-88
2023/09/11 13:42:48;;;;;;;0.00;0.00;;;;;;;;;;5038734;28;20091;-88
2023/09/11 13:45:15;;;;;;;0.00;0.00;;;;;;;;;;5037818;28;20045;-88
2023/09/11 13:47:41;;;;;;;0.00;0.00;;;;;;;;;;5021679;28;20136;-87
2023/09/11 13:50:09;;;;;;;0.03;0.03;;;;;;;;;;5021246;28;20126;-87
2023/09/11 13:52:35;;;;;;;0.10;0.10;;;;;;;;;;5020720;28;20045;-88
2023/09/11 13:55:01;;;;;;;0.03;0.03;;;;;;;;;;5021543;28;20080;-88
2023/09/11 13:57:27;;;;;;;0.00;0.00;;;;;;;;;;5021326;28;20547;-88
2023/09/11 13:59:53;;;;;;;0.10;0.10;;;;;;;;;;5021283;28;20034;-88
2023/09/11 14:02:19;;;;;;;0.10;0.10;;;;;;;;;;5021700;28;20095;-89
2023/09/11 14:04:45;;;;;;;0.10;0.10;;;;;;;;;;5021518;28;20041;-88
2023/09/11 14:07:11;;;;;;;0.10;0.10;;;;;;;;;;5020483;28;20060;-88
2023/09/11 14:09:37;;;;;;;0.00;0.00;;;;;;;;;;5036945;28;20131;-88
2023/09/11 14:12:03;;;;;;;0.00;0.00;;;;;;;;;;5019619;28;20041;-89
2023/09/11 14:14:30;;;;;;;0.10;0.10;;;;;;;;;;5036859;28;20499;-88
2023/09/11 14:16:56;;;;;;;0.08;0.08;;;;;;;;;;5020823;28;20498;-88
2023/09/11 14:19:22;;;;;;;0.10;0.10;;;;;;;;;;5021270;28;20038;-88
2023/09/11 14:21:49;;;;;;;0.00;0.00;;;;;;;;;;5021504;28;20037;-89
2023/09/11 14:24:16;;;;;;;0.10;0.10;;;;;;;;;;5024787;28;20049;-88
2023/09/11 14:26:43;;;;;;;0.05;0.05;;;;;;;;;;5024607;28;20068;-88
2023/09/11 14:29:09;;;;;;;0.10;0.10;;;;;;;;;;5025000;28;20136;-88
2023/09/11 14:31:35;;;;;;;0.10;0.10;;;;;;;;;;5024363;28;20131;-89
2023/09/11 14:34:02;;;;;;;0.00;0.00;;;;;;;;;;5024832;28;20124;-88
2023/09/11 14:36:28;;;;;;;0.00;0.00;;;;;;;;;;5024408;28;20398;-89
2023/09/11 14:38:55;;;;;;;0.10;0.10;;;;;;;;;;5041715;28;20557;-89
2023/09/11 14:41:21;;;;;;;0.08;0.08;;;;;;;;;;5042238;28;20041;-89
2023/09/11 14:43:47;;;;;;;0.00;0.00;;;;;;;;;;5041166;28;20049;-88